sensor_id;sensor_type;location;lat;lon;timestamp;pressure;altitude;pressure_sealevel;temperature;humidity
21730;BME280;11027;51.030;13.812;2024-01-07T00:01:10;100057.63;;;2.88;68.61
21730;BME280;11027;51.030;13.812;2024-01-07T00:03:35;100066.72;;;2.87;68.15
21730;BME280;11027;51.030;13.812;2024-01-07T00:06:00;100052.53;;;2.85;67.95
21730;BME280;11027;51.030;13.812;2024-01-07T00:08:25;100056.06;;;2.86;67.79
21730;BME280;11027;51.030;13.812;2024-01-07T00:10:51;100061.03;;;2.90;67.68
21730;BME280;11027;51.030;13.812;2024-01-07T00:13:16;100064.19;;;2.95;67.75
21730;BME280;11027;51.030;13.812;2024-01-07T00:15:41;100063.47;;;2.93;67.57
21730;BME280;11027;51.030;13.812;2024-01-07T00:18:06;100062.47;;;2.94;67.59
21730;BME280;11027;51.030;13.812;2024-01-07T00:20:32;100067.72;;;2.96;67.40
21730;BME280;11027;51.030;13.812;2024-01-07T00:22:57;100069.56;;;2.95;67.46
21730;BME280;11027;51.030;13.812;2024-01-07T00:25:22;100067.84;;;2.94;67.53
21730;BME280;11027;51.030;13.812;2024-01-07T00:27:48;100069.56;;;2.95;67.43
21730;BME280;11027;51.030;13.812;2024-01-07T00:30:13;100079.47;;;2.95;67.39
21730;BME280;11027;51.030;13.812;2024-01-07T00:32:38;100072.53;;;2.92;67.54
21730;BME280;11027;51.030;13.812;2024-01-07T00:35:04;100079.44;;;2.85;67.62
21730;BME280;11027;51.030;13.812;2024-01-07T00:37:29;100078.25;;;2.78;68.14
21730;BME280;11027;51.030;13.812;2024-01-07T00:39:54;100083.03;;;2.74;68.21
21730;BME280;11027;51.030;13.812;2024-01-07T00:42:20;100086.59;;;2.75;68.53
21730;BME280;11027;51.030;13.812;2024-01-07T00:44:46;100085.59;;;2.76;68.70
21730;BME280;11027;51.030;13.812;2024-01-07T00:47:11;100085.88;;;2.73;68.82
21730;BME280;11027;51.030;13.812;2024-01-07T00:49:36;100091.25;;;2.73;68.87
21730;BME280;11027;51.030;13.812;2024-01-07T00:52:01;100091.25;;;2.73;68.93
21730;BME280;11027;51.030;13.812;2024-01-07T00:54:27;100091.38;;;2.71;68.94
21730;BME280;11027;51.030;13.812;2024-01-07T00:56:52;100095.78;;;2.72;68.94
21730;BME280;11027;51.030;13.812;2024-01-07T00:59:17;100098.63;;;2.71;68.97
21730;BME280;11027;51.030;13.812;2024-01-07T01:01:42;100106.50;;;2.63;68.81
21730;BME280;11027;51.030;13.812;2024-01-07T01:04:08;100100.63;;;2.57;68.62
21730;BME280;11027;51.030;13.812;2024-01-07T01:06:33;100105.28;;;2.55;68.85
21730;BME280;11027;51.030;13.812;2024-01-07T01:08:58;100108.72;;;2.57;68.81
21730;BME280;11027;51.030;13.812;2024-01-07T01:11:24;100098.91;;;2.56;68.64
21730;BME280;11027;51.030;13.812;2024-01-07T01:13:49;100107.50;;;2.50;68.13
21730;BME280;11027;51.030;13.812;2024-01-07T01:16:14;100115.97;;;2.46;67.88
21730;BME280;11027;51.030;13.812;2024-01-07T01:18:39;100111.72;;;2.43;68.15
21730;BME280;11027;51.030;13.812;2024-01-07T01:21:05;100119.50;;;2.46;68.18
21730;BME280;11027;51.030;13.812;2024-01-07T01:23:30;100118.25;;;2.50;68.03
21730;BME280;11027;51.030;13.812;2024-01-07T01:25:55;100121.69;;;2.52;68.10
21730;BME280;11027;51.030;13.812;2024-01-07T01:28:20;100127.66;;;2.56;67.99
21730;BME280;11027;51.030;13.812;2024-01-07T01:30:46;100127.06;;;2.52;67.71
21730;BME280;11027;51.030;13.812;2024-01-07T01:33:11;100123.91;;;2.47;67.56
21730;BME280;11027;51.030;13.812;2024-01-07T01:35:36;100134.19;;;2.42;67.50
21730;BME280;11027;51.030;13.812;2024-01-07T01:38:02;100128.25;;;2.38;67.58
21730;BME280;11027;51.030;13.812;2024-01-07T01:40:27;100135.59;;;2.36;67.65
21730;BME280;11027;51.030;13.812;2024-01-07T01:42:52;100132.75;;;2.38;67.68
21730;BME280;11027;51.030;13.812;2024-01-07T01:45:18;100135.44;;;2.38;67.62
21730;BME280;11027;51.030;13.812;2024-01-07T01:47:44;100136.44;;;2.37;67.55
21730;BME280;11027;51.030;13.812;2024-01-07T01:50:11;100146.06;;;2.39;67.61
21730;BME280;11027;51.030;13.812;2024-01-07T01:52:36;100148.44;;;2.33;67.62
21730;BME280;11027;51.030;13.812;2024-01-07T01:55:02;100148.44;;;2.33;68.07
21730;BME280;11027;51.030;13.812;2024-01-07T01:57:32;100148.44;;;2.33;68.04
21730;BME280;11027;51.030;13.812;2024-01-07T01:59:58;100150.91;;;2.25;67.84
21730;BME280;11027;51.030;13.812;2024-01-07T02:02:28;100146.75;;;2.20;67.91
21730;BME280;11027;51.030;13.812;2024-01-07T02:04:55;100147.72;;;2.19;67.97
21730;BME280;11027;51.030;13.812;2024-01-07T02:07:21;100150.91;;;2.25;67.81
21730;BME280;11027;51.030;13.812;2024-01-07T02:09:46;100165.81;;;2.29;67.66
21730;BME280;11027;51.030;13.812;2024-01-07T02:12:11;100166.16;;;2.24;67.32
21730;BME280;11027;51.030;13.812;2024-01-07T02:14:37;100170.56;;;2.25;67.29
21730;BME280;11027;51.030;13.812;2024-01-07T02:17:03;100169.22;;;2.19;66.87
21730;BME280;11027;51.030;13.812;2024-01-07T02:19:28;100170.97;;;2.09;66.50
21730;BME280;11027;51.030;13.812;2024-01-07T02:21:53;100177.84;;;2.02;66.50
21730;BME280;11027;51.030;13.812;2024-01-07T02:24:19;100174.31;;;1.90;66.60
21730;BME280;11027;51.030;13.812;2024-01-07T02:26:44;100177.97;;;1.89;66.34
21730;BME280;11027;51.030;13.812;2024-01-07T02:29:09;100179.56;;;1.92;66.76
21730;BME280;11027;51.030;13.812;2024-01-07T02:31:35;100181.16;;;1.94;66.53
21730;BME280;11027;51.030;13.812;2024-01-07T02:34:00;100182.72;;;1.97;66.28
21730;BME280;11027;51.030;13.812;2024-01-07T02:36:25;100189.06;;;1.96;66.49
21730;BME280;11027;51.030;13.812;2024-01-07T02:38:50;100179.81;;;2.00;66.31
21730;BME280;11027;51.030;13.812;2024-01-07T02:41:16;100185.19;;;2.00;66.28
21730;BME280;11027;51.030;13.812;2024-01-07T02:43:41;100187.88;;;2.00;66.16
21730;BME280;11027;51.030;13.812;2024-01-07T02:46:07;100183.22;;;2.02;66.28
21730;BME280;11027;51.030;13.812;2024-01-07T02:48:32;100189.56;;;2.01;66.06
21730;BME280;11027;51.030;13.812;2024-01-07T02:50:57;100192.25;;;2.01;66.02
21730;BME280;11027;51.030;13.812;2024-01-07T02:53:23;100193.97;;;2.02;66.11
21730;BME280;11027;51.030;13.812;2024-01-07T02:55:48;100194.22;;;1.99;66.09
21730;BME280;11027;51.030;13.812;2024-01-07T02:58:13;100199.34;;;2.02;66.11
21730;BME280;11027;51.030;13.812;2024-01-07T03:00:38;100193.69;;;2.05;65.94
21730;BME280;11027;51.030;13.812;2024-01-07T03:03:04;100194.31;;;2.09;66.15
21730;BME280;11027;51.030;13.812;2024-01-07T03:05:29;100200.31;;;2.12;65.93
21730;BME280;11027;51.030;13.812;2024-01-07T03:07:58;100193.81;;;2.15;66.03
21730;BME280;11027;51.030;13.812;2024-01-07T03:10:23;100205.41;;;2.15;65.88
21730;BME280;11027;51.030;13.812;2024-01-07T03:12:49;100208.81;;;2.17;65.91
21730;BME280;11027;51.030;13.812;2024-01-07T03:15:14;100205.41;;;2.15;65.79
21730;BME280;11027;51.030;13.812;2024-01-07T03:17:39;100210.06;;;2.13;65.35
21730;BME280;11027;51.030;13.812;2024-01-07T03:20:05;100203.84;;;2.02;65.10
21730;BME280;11027;51.030;13.812;2024-01-07T03:22:30;100210.56;;;1.96;64.96
21730;BME280;11027;51.030;13.812;2024-01-07T03:24:55;100201.53;;;1.97;64.94
21730;BME280;11027;51.030;13.812;2024-01-07T03:27:21;100212.06;;;2.00;64.81
21730;BME280;11027;51.030;13.812;2024-01-07T03:29:46;100206.91;;;1.97;65.17
21730;BME280;11027;51.030;13.812;2024-01-07T03:32:11;100209.09;;;1.92;64.79
21730;BME280;11027;51.030;13.812;2024-01-07T03:34:38;100204.97;;;1.88;64.43
21730;BME280;11027;51.030;13.812;2024-01-07T03:37:04;100211.56;;;1.84;64.48
21730;BME280;11027;51.030;13.812;2024-01-07T03:39:32;100214.25;;;1.84;64.39
21730;BME280;11027;51.030;13.812;2024-01-07T03:41:57;100221.72;;;1.80;64.26
21730;BME280;11027;51.030;13.812;2024-01-07T03:44:22;100219.53;;;1.74;63.98
21730;BME280;11027;51.030;13.812;2024-01-07T03:46:48;100216.72;;;1.64;63.89
21730;BME280;11027;51.030;13.812;2024-01-07T03:49:14;100213.28;;;1.62;64.03
21730;BME280;11027;51.030;13.812;2024-01-07T03:51:39;100220.34;;;1.63;64.10
21730;BME280;11027;51.030;13.812;2024-01-07T03:54:04;100229.41;;;1.62;64.21
21730;BME280;11027;51.030;13.812;2024-01-07T03:56:30;100221.81;;;1.67;64.29
21730;BME280;11027;51.030;13.812;2024-01-07T03:58:55;100233.91;;;1.73;64.16
21730;BME280;11027;51.030;13.812;2024-01-07T04:01:20;100227.09;;;1.80;64.08
21730;BME280;11027;51.030;13.812;2024-01-07T04:03:45;100225.72;;;1.86;64.02
21730;BME280;11027;51.030;13.812;2024-01-07T04:06:11;100234.50;;;1.88;63.91
21730;BME280;11027;51.030;13.812;2024-01-07T04:08:36;100235.97;;;1.92;63.87
21730;BME280;11027;51.030;13.812;2024-01-07T04:11:02;100232.31;;;1.93;63.61
21730;BME280;11027;51.030;13.812;2024-01-07T04:13:27;100232.31;;;1.93;63.56
21730;BME280;11027;51.030;13.812;2024-01-07T04:15:52;100244.91;;;1.92;63.52
21730;BME280;11027;51.030;13.812;2024-01-07T04:18:18;100246.25;;;1.87;63.39
21730;BME280;11027;51.030;13.812;2024-01-07T04:20:43;100244.91;;;1.81;63.39
21730;BME280;11027;51.030;13.812;2024-01-07T04:23:08;100238.81;;;1.79;63.47
21730;BME280;11027;51.030;13.812;2024-01-07T04:25:33;100239.91;;;1.76;63.58
21730;BME280;11027;51.030;13.812;2024-01-07T04:27:59;100256.75;;;1.78;63.73
21730;BME280;11027;51.030;13.812;2024-01-07T04:30:25;100258.59;;;1.78;63.62
21730;BME280;11027;51.030;13.812;2024-01-07T04:32:50;100249.91;;;1.74;63.64
21730;BME280;11027;51.030;13.812;2024-01-07T04:35:15;100251.63;;;1.75;63.70
21730;BME280;11027;51.030;13.812;2024-01-07T04:37:41;100249.91;;;1.74;63.69
21730;BME280;11027;51.030;13.812;2024-01-07T04:40:07;100258.72;;;1.76;63.70
21730;BME280;11027;51.030;13.812;2024-01-07T04:42:33;100250.88;;;1.73;63.66
21730;BME280;11027;51.030;13.812;2024-01-07T04:44:58;100268.84;;;1.73;63.53
21730;BME280;11027;51.030;13.812;2024-01-07T04:47:29;100269.09;;;1.70;63.51
21730;BME280;11027;51.030;13.812;2024-01-07T04:49:55;100272.22;;;1.64;63.32
21730;BME280;11027;51.030;13.812;2024-01-07T04:52:21;100274.34;;;1.60;63.37
21730;BME280;11027;51.030;13.812;2024-01-07T04:54:46;100270.91;;;1.58;63.44
21730;BME280;11027;51.030;13.812;2024-01-07T04:57:12;100269.44;;;1.54;63.45
21730;BME280;11027;51.030;13.812;2024-01-07T04:59:37;100273.34;;;1.50;63.51
21730;BME280;11027;51.030;13.812;2024-01-07T05:02:03;100281.16;;;1.53;63.72
21730;BME280;11027;51.030;13.812;2024-01-07T05:04:28;100276.03;;;1.61;63.60
21730;BME280;11027;51.030;13.812;2024-01-07T05:06:53;100282.88;;;1.65;63.60
21730;BME280;11027;51.030;13.812;2024-01-07T05:09:18;100279.44;;;1.63;63.27
21730;BME280;11027;51.030;13.812;2024-01-07T05:11:44;100284.81;;;1.63;63.28
21730;BME280;11027;51.030;13.812;2024-01-07T05:14:11;100287.03;;;1.58;63.43
21730;BME280;11027;51.030;13.812;2024-01-07T05:16:36;100290.66;;;1.57;63.40
21730;BME280;11027;51.030;13.812;2024-01-07T05:19:02;100296.03;;;1.57;63.37
21730;BME280;11027;51.030;13.812;2024-01-07T05:21:27;100298.00;;;1.55;63.57
21730;BME280;11027;51.030;13.812;2024-01-07T05:23:52;100307.03;;;1.54;63.50
21730;BME280;11027;51.030;13.812;2024-01-07T05:26:17;100303.84;;;1.49;63.58
21730;BME280;11027;51.030;13.812;2024-01-07T05:28:42;100308.09;;;1.51;63.60
21730;BME280;11027;51.030;13.812;2024-01-07T05:31:18;100304.94;;;1.46;63.42
21730;BME280;11027;51.030;13.812;2024-01-07T05:33:44;100308.84;;;1.42;63.46
21730;BME280;11027;51.030;13.812;2024-01-07T05:36:11;100317.25;;;1.37;63.39
21730;BME280;11027;51.030;13.812;2024-01-07T05:38:36;100322.84;;;1.34;63.38
21730;BME280;11027;51.030;13.812;2024-01-07T05:41:01;100320.09;;;1.23;63.39
21730;BME280;11027;51.030;13.812;2024-01-07T05:43:27;100323.50;;;1.14;63.29
21730;BME280;11027;51.030;13.812;2024-01-07T05:45:52;100322.53;;;1.15;63.57
21730;BME280;11027;51.030;13.812;2024-01-07T05:48:17;100326.94;;;1.16;63.61
21730;BME280;11027;51.030;13.812;2024-01-07T05:50:42;100320.56;;;1.17;63.38
21730;BME280;11027;51.030;13.812;2024-01-07T05:53:08;100323.16;;;1.18;63.16
21730;BME280;11027;51.030;13.812;2024-01-07T05:55:33;100334.13;;;1.15;63.49
21730;BME280;11027;51.030;13.812;2024-01-07T05:57:58;100336.41;;;1.09;63.01
21730;BME280;11027;51.030;13.812;2024-01-07T06:00:23;100349.59;;;1.12;63.42
21730;BME280;11027;51.030;13.812;2024-01-07T06:02:49;100348.03;;;1.20;63.33
21730;BME280;11027;51.030;13.812;2024-01-07T06:05:14;100347.94;;;1.22;63.09
21730;BME280;11027;51.030;13.812;2024-01-07T06:07:39;100348.69;;;1.24;63.34
21730;BME280;11027;51.030;13.812;2024-01-07T06:10:05;100350.25;;;1.27;63.17
21730;BME280;11027;51.030;13.812;2024-01-07T06:12:31;100361.75;;;1.29;63.17
21730;BME280;11027;51.030;13.812;2024-01-07T06:14:56;100352.72;;;1.30;62.84
21730;BME280;11027;51.030;13.812;2024-01-07T06:17:21;100360.69;;;1.31;62.79
21730;BME280;11027;51.030;13.812;2024-01-07T06:19:47;100361.09;;;1.25;62.57
21730;BME280;11027;51.030;13.812;2024-01-07T06:22:12;100362.66;;;1.16;62.38
21730;BME280;11027;51.030;13.812;2024-01-07T06:24:37;100368.22;;;1.02;62.29
21730;BME280;11027;51.030;13.812;2024-01-07T06:27:03;100366.63;;;0.99;62.35
21730;BME280;11027;51.030;13.812;2024-01-07T06:29:29;100373.94;;;0.97;62.57
21730;BME280;11027;51.030;13.812;2024-01-07T06:31:54;100384.88;;;0.94;62.78
21730;BME280;11027;51.030;13.812;2024-01-07T06:34:20;100377.47;;;0.98;62.79
21730;BME280;11027;51.030;13.812;2024-01-07T06:36:46;100387.84;;;1.03;62.93
21730;BME280;11027;51.030;13.812;2024-01-07T06:39:11;100392.25;;;1.04;62.85
21730;BME280;11027;51.030;13.812;2024-01-07T06:41:37;100389.34;;;1.07;62.83
21730;BME280;11027;51.030;13.812;2024-01-07T06:44:02;100394.69;;;1.07;62.75
21730;BME280;11027;51.030;13.812;2024-01-07T06:46:28;100402.75;;;1.07;62.55
21730;BME280;11027;51.030;13.812;2024-01-07T06:48:53;100405.88;;;1.00;62.56
21730;BME280;11027;51.030;13.812;2024-01-07T06:51:18;100413.19;;;0.98;62.43
21730;BME280;11027;51.030;13.812;2024-01-07T06:53:44;100414.94;;;0.99;62.24
21730;BME280;11027;51.030;13.812;2024-01-07T06:56:09;100412.75;;;1.05;62.19
21730;BME280;11027;51.030;13.812;2024-01-07T06:58:34;100416.16;;;1.07;62.08
21730;BME280;11027;51.030;13.812;2024-01-07T07:00:59;100429.38;;;1.10;61.88
21730;BME280;11027;51.030;13.812;2024-01-07T07:03:25;100428.53;;;1.09;61.76
21730;BME280;11027;51.030;13.812;2024-01-07T07:05:50;100432.63;;;1.02;61.23
21730;BME280;11027;51.030;13.812;2024-01-07T07:08:16;100436.59;;;0.96;61.09
21730;BME280;11027;51.030;13.812;2024-01-07T07:10:41;100432.31;;;0.94;60.97
21730;BME280;11027;51.030;13.812;2024-01-07T07:13:06;100436.84;;;0.93;60.90
21730;BME280;11027;51.030;13.812;2024-01-07T07:15:32;100440.28;;;0.95;60.78
21730;BME280;11027;51.030;13.812;2024-01-07T07:17:57;100451.00;;;0.95;60.69
21730;BME280;11027;51.030;13.812;2024-01-07T07:20:22;100446.09;;;0.89;60.56
21730;BME280;11027;51.030;13.812;2024-01-07T07:22:48;100445.44;;;0.86;60.45
21730;BME280;11027;51.030;13.812;2024-01-07T07:25:13;100440.72;;;0.89;60.50
21730;BME280;11027;51.030;13.812;2024-01-07T07:27:38;100448.41;;;0.94;60.62
21730;BME280;11027;51.030;13.812;2024-01-07T07:30:05;100447.56;;;0.93;60.42
21730;BME280;11027;51.030;13.812;2024-01-07T07:32:30;100455.09;;;0.88;60.61
21730;BME280;11027;51.030;13.812;2024-01-07T07:34:55;100453.38;;;0.87;60.42
21730;BME280;11027;51.030;13.812;2024-01-07T07:37:21;100458.97;;;0.84;60.41
21730;BME280;11027;51.030;13.812;2024-01-07T07:39:46;100466.50;;;0.79;60.37
21730;BME280;11027;51.030;13.812;2024-01-07T07:42:11;100462.84;;;0.80;60.39
21730;BME280;11027;51.030;13.812;2024-01-07T07:44:36;100465.50;;;0.80;60.33
21730;BME280;11027;51.030;13.812;2024-01-07T07:47:04;100464.31;;;0.84;60.29
21730;BME280;11027;51.030;13.812;2024-01-07T07:49:29;100472.25;;;0.86;60.33
21730;BME280;11027;51.030;13.812;2024-01-07T07:51:55;100475.06;;;0.84;60.41
21730;BME280;11027;51.030;13.812;2024-01-07T07:54:20;100486.88;;;0.82;60.50
21730;BME280;11027;51.030;13.812;2024-01-07T07:56:45;100483.84;;;0.86;60.64
21730;BME280;11027;51.030;13.812;2024-01-07T07:59:10;100499.00;;;0.87;60.41
21730;BME280;11027;51.030;13.812;2024-01-07T08:01:36;100491.38;;;0.81;60.46
21730;BME280;11027;51.030;13.812;2024-01-07T08:04:01;100492.00;;;0.85;60.42
21730;BME280;11027;51.030;13.812;2024-01-07T08:06:27;100496.06;;;0.90;60.49
21730;BME280;11027;51.030;13.812;2024-01-07T08:08:53;100498.75;;;0.90;60.22
21730;BME280;11027;51.030;13.812;2024-01-07T08:11:18;100504.75;;;0.94;60.00
21730;BME280;11027;51.030;13.812;2024-01-07T08:13:43;100505.72;;;0.93;59.75
21730;BME280;11027;51.030;13.812;2024-01-07T08:16:08;100513.91;;;0.91;59.76
21730;BME280;11027;51.030;13.812;2024-01-07T08:18:35;100515.84;;;0.89;59.55
21730;BME280;11027;51.030;13.812;2024-01-07T08:21:00;100512.59;;;0.84;59.50
21730;BME280;11027;51.030;13.812;2024-01-07T08:23:25;100518.22;;;0.81;59.41
21730;BME280;11027;51.030;13.812;2024-01-07T08:25:51;100516.03;;;0.86;59.64
21730;BME280;11027;51.030;13.812;2024-01-07T08:28:18;100519.91;;;0.82;59.21
21730;BME280;11027;51.030;13.812;2024-01-07T08:30:45;100520.25;;;0.77;59.39
21730;BME280;11027;51.030;13.812;2024-01-07T08:33:10;100532.06;;;0.75;59.24
21730;BME280;11027;51.030;13.812;2024-01-07T08:35:36;100530.44;;;0.72;59.10
21730;BME280;11027;51.030;13.812;2024-01-07T08:38:01;100533.44;;;0.68;59.07
21730;BME280;11027;51.030;13.812;2024-01-07T08:40:26;100535.38;;;0.66;59.05
21730;BME280;11027;51.030;13.812;2024-01-07T08:42:52;100544.16;;;0.68;59.14
21730;BME280;11027;51.030;13.812;2024-01-07T08:45:17;100543.75;;;0.61;58.42
21730;BME280;11027;51.030;13.812;2024-01-07T08:47:44;100539.88;;;0.52;58.69
21730;BME280;11027;51.030;13.812;2024-01-07T08:50:09;100539.88;;;0.52;58.86
21730;BME280;11027;51.030;13.812;2024-01-07T08:52:35;100543.53;;;0.51;58.60
21730;BME280;11027;51.030;13.812;2024-01-07T08:55:01;100540.75;;;0.53;58.64
21730;BME280;11027;51.030;13.812;2024-01-07T08:57:26;100543.09;;;0.57;58.68
21730;BME280;11027;51.030;13.812;2024-01-07T08:59:52;100545.53;;;0.60;58.71
21730;BME280;11027;51.030;13.812;2024-01-07T09:02:17;100554.25;;;0.64;58.71
21730;BME280;11027;51.030;13.812;2024-01-07T09:04:43;100552.41;;;0.65;58.46
21730;BME280;11027;51.030;13.812;2024-01-07T09:07:08;100557.56;;;0.68;58.32
21730;BME280;11027;51.030;13.812;2024-01-07T09:09:33;100549.53;;;0.68;58.24
21730;BME280;11027;51.030;13.812;2024-01-07T09:11:58;100561.75;;;0.72;58.08
21730;BME280;11027;51.030;13.812;2024-01-07T09:14:25;100566.50;;;0.81;58.60
21730;BME280;11027;51.030;13.812;2024-01-07T09:16:50;100559.19;;;0.83;58.41
21730;BME280;11027;51.030;13.812;2024-01-07T09:19:16;100564.97;;;0.90;58.29
21730;BME280;11027;51.030;13.812;2024-01-07T09:21:42;100572.16;;;0.89;57.84
21730;BME280;11027;51.030;13.812;2024-01-07T09:24:08;100572.91;;;0.91;57.55
21730;BME280;11027;51.030;13.812;2024-01-07T09:26:33;100573.53;;;0.95;57.36
21730;BME280;11027;51.030;13.812;2024-01-07T09:28:59;100576.97;;;0.97;57.16
21730;BME280;11027;51.030;13.812;2024-01-07T09:31:24;100579.34;;;1.02;57.09
21730;BME280;11027;51.030;13.812;2024-01-07T09:33:49;100583.72;;;1.03;57.04
21730;BME280;11027;51.030;13.812;2024-01-07T09:36:14;100582.53;;;1.07;56.99
21730;BME280;11027;51.030;13.812;2024-01-07T09:38:41;100579.09;;;1.05;56.50
21730;BME280;11027;51.030;13.812;2024-01-07T09:41:07;100581.78;;;1.05;56.84
21730;BME280;11027;51.030;13.812;2024-01-07T09:43:32;100575.47;;;1.06;56.75
21730;BME280;11027;51.030;13.812;2024-01-07T09:45:58;100570.31;;;1.03;56.56
21730;BME280;11027;51.030;13.812;2024-01-07T09:48:24;100581.03;;;1.03;56.49
21730;BME280;11027;51.030;13.812;2024-01-07T09:50:51;100578.91;;;0.95;56.23
21730;BME280;11027;51.030;13.812;2024-01-07T09:53:20;100574.63;;;0.92;56.35
21730;BME280;11027;51.030;13.812;2024-01-07T09:58:58;100584.28;;;0.82;56.53
21730;BME280;11027;51.030;13.812;2024-01-07T10:01:24;100582.78;;;0.78;56.40
21730;BME280;11027;51.030;13.812;2024-01-07T10:03:49;100581.09;;;0.77;56.31
21730;BME280;11027;51.030;13.812;2024-01-07T10:06:18;100583.00;;;0.75;56.36
21730;BME280;11027;51.030;13.812;2024-01-07T10:08:43;100584.94;;;0.73;56.47
21730;BME280;11027;51.030;13.812;2024-01-07T10:11:08;100590.06;;;0.76;56.61
21730;BME280;11027;51.030;13.812;2024-01-07T10:13:34;100589.00;;;0.78;56.62
21730;BME280;11027;51.030;13.812;2024-01-07T10:15:59;100591.81;;;0.77;56.63
21730;BME280;11027;51.030;13.812;2024-01-07T10:18:25;100594.78;;;0.72;56.64
21730;BME280;11027;51.030;13.812;2024-01-07T10:20:50;100590.50;;;0.70;56.69
21730;BME280;11027;51.030;13.812;2024-01-07T10:23:21;100588.13;;;0.52;56.51
21730;BME280;11027;51.030;13.812;2024-01-07T10:25:46;100597.16;;;0.51;56.71
21730;BME280;11027;51.030;13.812;2024-01-07T10:28:14;100606.28;;;0.49;57.05
21730;BME280;11027;51.030;13.812;2024-01-07T10:30:40;100603.13;;;0.42;56.88
21730;BME280;11027;51.030;13.812;2024-01-07T10:33:06;100604.72;;;0.32;56.96
21730;BME280;11027;51.030;13.812;2024-01-07T10:35:33;100594.97;;;0.31;57.04
21730;BME280;11027;51.030;13.812;2024-01-07T10:38:00;100612.75;;;0.32;56.83
21730;BME280;11027;51.030;13.812;2024-01-07T10:40:27;100611.66;;;0.22;56.51
21730;BME280;11027;51.030;13.812;2024-01-07T10:42:54;100615.31;;;0.21;56.49
21730;BME280;11027;51.030;13.812;2024-01-07T10:45:19;100614.25;;;0.23;56.54
21730;BME280;11027;51.030;13.812;2024-01-07T10:47:49;100618.97;;;0.32;56.61
21730;BME280;11027;51.030;13.812;2024-01-07T10:50:16;100613.53;;;0.34;56.12
21730;BME280;11027;51.030;13.812;2024-01-07T10:52:42;100616.41;;;0.31;55.97
21730;BME280;11027;51.030;13.812;2024-01-07T10:55:09;100611.25;;;0.28;55.71
21730;BME280;11027;51.030;13.812;2024-01-07T10:57:42;100611.25;;;0.28;55.67
21730;BME280;11027;51.030;13.812;2024-01-07T11:00:09;100612.75;;;0.32;55.74
21730;BME280;11027;51.030;13.812;2024-01-07T11:02:41;100613.09;;;0.40;55.73
21730;BME280;11027;51.030;13.812;2024-01-07T11:05:36;100612.91;;;0.43;55.36
21730;BME280;11027;51.030;13.812;2024-01-07T11:08:24;100610.22;;;0.43;55.25
21730;BME280;11027;51.030;13.812;2024-01-07T11:10:55;100611.31;;;0.53;55.70
21730;BME280;11027;51.030;13.812;2024-01-07T11:13:35;100610.25;;;0.69;55.73
21730;BME280;11027;51.030;13.812;2024-01-07T11:16:01;100613.03;;;0.80;55.45
21730;BME280;11027;51.030;13.812;2024-01-07T11:18:27;100621.63;;;0.85;54.90
21730;BME280;11027;51.030;13.812;2024-01-07T11:21:00;100617.78;;;0.89;54.62
21730;BME280;11027;51.030;13.812;2024-01-07T11:23:29;100620.13;;;0.94;54.50
21730;BME280;11027;51.030;13.812;2024-01-07T11:26:01;100619.47;;;0.90;53.65
21730;BME280;11027;51.030;13.812;2024-01-07T11:31:07;100628.69;;;0.86;53.56
21730;BME280;11027;51.030;13.812;2024-01-07T11:33:34;100631.72;;;0.82;53.14
21730;BME280;11027;51.030;13.812;2024-01-07T11:36:02;100637.72;;;0.72;52.91
21730;BME280;11027;51.030;13.812;2024-01-07T11:38:28;100630.00;;;0.68;52.49
21730;BME280;11027;51.030;13.812;2024-01-07T11:40:54;100630.41;;;0.62;52.04
21730;BME280;11027;51.030;13.812;2024-01-07T11:43:21;100626.75;;;0.50;51.92
21730;BME280;11027;51.030;13.812;2024-01-07T11:45:46;100631.59;;;0.57;51.80
21730;BME280;11027;51.030;13.812;2024-01-07T11:48:12;100629.78;;;0.71;52.04
21730;BME280;11027;51.030;13.812;2024-01-07T11:50:38;100630.63;;;0.84;51.94
21730;BME280;11027;51.030;13.812;2024-01-07T11:53:03;100620.13;;;0.94;52.00
21730;BME280;11027;51.030;13.812;2024-01-07T11:55:29;100623.97;;;1.03;51.86
21730;BME280;11027;51.030;13.812;2024-01-07T11:57:57;100630.31;;;1.02;51.72
21730;BME280;11027;51.030;13.812;2024-01-07T12:00:23;100631.50;;;0.97;51.71
21730;BME280;11027;51.030;13.812;2024-01-07T12:02:48;100635.38;;;0.93;51.63
21730;BME280;11027;51.030;13.812;2024-01-07T12:05:13;100636.75;;;0.86;51.18
21730;BME280;11027;51.030;13.812;2024-01-07T12:07:41;100638.16;;;0.79;51.44
21730;BME280;11027;51.030;13.812;2024-01-07T12:10:09;100643.53;;;0.79;51.44
21730;BME280;11027;51.030;13.812;2024-01-07T12:12:38;100645.66;;;0.74;51.40
21730;BME280;11027;51.030;13.812;2024-01-07T12:15:04;100645.00;;;0.70;51.29
21730;BME280;11027;51.030;13.812;2024-01-07T12:17:31;100651.88;;;0.62;51.44
21730;BME280;11027;51.030;13.812;2024-01-07T12:19:56;100644.44;;;0.52;51.71
21730;BME280;11027;51.030;13.812;2024-01-07T12:22:21;100646.16;;;0.53;51.84
21730;BME280;11027;51.030;13.812;2024-01-07T12:24:47;100644.56;;;0.64;52.20
21730;BME280;11027;51.030;13.812;2024-01-07T12:27:24;100650.69;;;0.66;51.77
21730;BME280;11027;51.030;13.812;2024-01-07T12:29:57;100649.94;;;0.64;51.83
21730;BME280;11027;51.030;13.812;2024-01-07T12:32:22;100665.84;;;0.67;51.85
21730;BME280;11027;51.030;13.812;2024-01-07T12:34:48;100662.38;;;0.65;51.85
21730;BME280;11027;51.030;13.812;2024-01-07T12:37:14;100659.16;;;0.59;51.99
21730;BME280;11027;51.030;13.812;2024-01-07T12:39:40;100669.72;;;0.48;51.81
21730;BME280;11027;51.030;13.812;2024-01-07T12:42:05;100674.75;;;0.40;51.98
21730;BME280;11027;51.030;13.812;2024-01-07T12:44:32;100683.56;;;0.42;52.21
21730;BME280;11027;51.030;13.812;2024-01-07T12:46:57;100674.16;;;0.49;52.26
21730;BME280;11027;51.030;13.812;2024-01-07T12:49:23;100675.84;;;0.50;52.25